sensor_id;sensor_type;location;lat;lon;timestamp;pressure;altitude;pressure_sealevel;temperature;humidity
55576;BME280;41437;45.478;9.116;2023-11-21T00:01:56;99216.31;;;9.39;100.00
55576;BME280;41437;45.478;9.116;2023-11-21T00:04:58;99216.06;;;9.46;100.00
55576;BME280;41437;45.478;9.116;2023-11-21T00:08:00;99218.81;;;9.41;100.00
55576;BME280;41437;45.478;9.116;2023-11-21T00:11:02;99221.50;;;9.36;100.00
55576;BME280;41437;45.478;9.116;2023-11-21T00:14:05;99207.50;;;9.32;100.00
55576;BME280;41437;45.478;9.116;2023-11-21T00:17:07;99212.94;;;9.27;100.00
55576;BME280;41437;45.478;9.116;2023-11-21T00:20:08;99214.63;;;9.33;100.00
55576;BME280;41437;45.478;9.116;2023-11-21T00:23:14;99210.25;;;9.32;100.00
55576;BME280;41437;45.478;9.116;2023-11-21T00:26:15;99209.16;;;9.38;100.00
55576;BME280;41437;45.478;9.116;2023-11-21T00:29:16;99211.09;;;9.38;100.00
55576;BME280;41437;45.478;9.116;2023-11-21T00:32:18;99198.47;;;9.42;100.00
55576;BME280;41437;45.478;9.116;2023-11-21T00:35:20;99193.19;;;9.35;100.00
55576;BME280;41437;45.478;9.116;2023-11-21T00:38:22;99191.31;;;9.41;100.00
55576;BME280;41437;45.478;9.116;2023-11-21T00:41:24;99191.53;;;9.29;100.00
55576;BME280;41437;45.478;9.116;2023-11-21T00:44:27;99192.13;;;9.41;100.00
55576;BME280;41437;45.478;9.116;2023-11-21T00:47:29;99192.66;;;9.38;100.00
55576;BME280;41437;45.478;9.116;2023-11-21T00:50:30;99185.75;;;9.30;100.00
55576;BME280;41437;45.478;9.116;2023-11-21T00:53:33;99200.63;;;9.40;100.00
55576;BME280;41437;45.478;9.116;2023-11-21T00:56:34;99197.94;;;9.45;100.00
55576;BME280;41437;45.478;9.116;2023-11-21T00:59:35;99198.66;;;9.25;100.00
55576;BME280;41437;45.478;9.116;2023-11-21T01:02:37;99188.75;;;9.19;100.00
55576;BME280;41437;45.478;9.116;2023-11-21T01:05:38;99177.47;;;9.20;100.00
55576;BME280;41437;45.478;9.116;2023-11-21T01:08:41;99179.94;;;9.27;100.00
55576;BME280;41437;45.478;9.116;2023-11-21T01:11:42;99180.53;;;9.34;100.00
55576;BME280;41437;45.478;9.116;2023-11-21T01:14:44;99180.53;;;9.29;100.00
55576;BME280;41437;45.478;9.116;2023-11-21T01:17:45;99178.69;;;9.50;100.00
55576;BME280;41437;45.478;9.116;2023-11-21T01:20:47;99179.50;;;9.50;100.00
55576;BME280;41437;45.478;9.116;2023-11-21T01:23:50;99174.63;;;9.68;100.00
55576;BME280;41437;45.478;9.116;2023-11-21T01:26:51;99173.22;;;9.70;100.00
55576;BME280;41437;45.478;9.116;2023-11-21T01:29:53;99171.28;;;9.66;100.00
55576;BME280;41437;45.478;9.116;2023-11-21T01:32:54;99175.69;;;9.62;100.00
55576;BME280;41437;45.478;9.116;2023-11-21T01:35:56;99161.97;;;9.72;100.00
55576;BME280;41437;45.478;9.116;2023-11-21T01:38:59;99163.84;;;9.61;100.00
55576;BME280;41437;45.478;9.116;2023-11-21T01:42:01;99161.97;;;9.67;100.00
55576;BME280;41437;45.478;9.116;2023-11-21T01:45:02;99158.94;;;9.68;100.00
55576;BME280;41437;45.478;9.116;2023-11-21T01:48:05;99155.66;;;9.81;100.00
55576;BME280;41437;45.478;9.116;2023-11-21T01:51:07;99152.63;;;9.88;100.00
55576;BME280;41437;45.478;9.116;2023-11-21T01:54:10;99151.53;;;9.84;100.00
55576;BME280;41437;45.478;9.116;2023-11-21T01:57:12;99140.78;;;9.77;100.00
55576;BME280;41437;45.478;9.116;2023-11-21T02:00:14;99152.63;;;9.78;100.00
55576;BME280;41437;45.478;9.116;2023-11-21T02:03:19;99144.91;;;9.70;100.00
55576;BME280;41437;45.478;9.116;2023-11-21T02:06:20;99137.16;;;9.56;100.00
55576;BME280;41437;45.478;9.116;2023-11-21T02:09:25;99139.69;;;9.68;100.00
55576;BME280;41437;45.478;9.116;2023-11-21T02:12:27;99135.00;;;9.74;100.00
55576;BME280;41437;45.478;9.116;2023-11-21T02:15:28;99127.56;;;9.64;100.00
55576;BME280;41437;45.478;9.116;2023-11-21T02:18:30;99120.13;;;9.65;100.00
55576;BME280;41437;45.478;9.116;2023-11-21T02:21:31;99117.38;;;9.70;100.00
55576;BME280;41437;45.478;9.116;2023-11-21T02:24:34;99113.53;;;9.61;100.00
55576;BME280;41437;45.478;9.116;2023-11-21T02:27:36;99123.75;;;9.75;100.00
55576;BME280;41437;45.478;9.116;2023-11-21T02:30:38;99115.44;;;9.65;100.00
55576;BME280;41437;45.478;9.116;2023-11-21T02:33:39;99120.13;;;9.54;100.00
55576;BME280;41437;45.478;9.116;2023-11-21T02:36:41;99114.63;;;9.60;100.00
55576;BME280;41437;45.478;9.116;2023-11-21T02:39:44;99123.97;;;9.59;100.00
55576;BME280;41437;45.478;9.116;2023-11-21T02:42:46;99112.44;;;9.67;100.00
55576;BME280;41437;45.478;9.116;2023-11-21T02:45:47;99103.34;;;9.66;100.00
55576;BME280;41437;45.478;9.116;2023-11-21T02:48:50;99106.38;;;9.65;100.00
55576;BME280;41437;45.478;9.116;2023-11-21T02:51:54;99098.41;;;9.68;100.00
55576;BME280;41437;45.478;9.116;2023-11-21T02:54:57;99108.84;;;9.66;100.00
55576;BME280;41437;45.478;9.116;2023-11-21T02:57:58;99113.81;;;9.54;100.00
55576;BME280;41437;45.478;9.116;2023-11-21T03:01:00;99110.78;;;9.66;100.00
55576;BME280;41437;45.478;9.116;2023-11-21T03:04:02;99121.22;;;9.59;100.00
55576;BME280;41437;45.478;9.116;2023-11-21T03:07:03;99118.50;;;9.79;100.00
55576;BME280;41437;45.478;9.116;2023-11-21T03:10:07;99113.56;;;9.76;100.00
55576;BME280;41437;45.478;9.116;2023-11-21T03:13:11;99113.00;;;9.69;100.00
55576;BME280;41437;45.478;9.116;2023-11-21T03:16:12;99108.84;;;9.51;100.00
55576;BME280;41437;45.478;9.116;2023-11-21T03:19:13;99104.38;;;9.29;100.00
55576;BME280;41437;45.478;9.116;2023-11-21T03:22:15;99109.94;;;9.45;100.00
55576;BME280;41437;45.478;9.116;2023-11-21T03:25:18;99107.19;;;9.60;100.00
55576;BME280;41437;45.478;9.116;2023-11-21T03:28:20;99101.16;;;9.68;100.00
55576;BME280;41437;45.478;9.116;2023-11-21T03:31:22;99099.78;;;9.66;100.00
55576;BME280;41437;45.478;9.116;2023-11-21T03:34:23;99100.34;;;9.68;100.00
55576;BME280;41437;45.478;9.116;2023-11-21T03:37:25;99100.34;;;9.63;100.00
55576;BME280;41437;45.478;9.116;2023-11-21T03:40:29;99103.09;;;9.78;100.00
55576;BME280;41437;45.478;9.116;2023-11-21T03:43:31;99101.69;;;9.60;100.00
55576;BME280;41437;45.478;9.116;2023-11-21T03:46:32;99112.69;;;9.60;100.00
55576;BME280;41437;45.478;9.116;2023-11-21T03:49:34;99103.63;;;9.65;100.00
55576;BME280;41437;45.478;9.116;2023-11-21T03:52:35;99105.84;;;9.68;100.00
55576;BME280;41437;45.478;9.116;2023-11-21T03:55:38;99111.56;;;9.41;100.00
55576;BME280;41437;45.478;9.116;2023-11-21T03:58:39;99114.88;;;9.48;100.00
55576;BME280;41437;45.478;9.116;2023-11-21T04:01:41;99114.88;;;9.48;100.00
55576;BME280;41437;45.478;9.116;2023-11-21T04:04:42;99104.16;;;9.62;100.00
55576;BME280;41437;45.478;9.116;2023-11-21T04:07:44;99106.94;;;9.92;100.00
55576;BME280;41437;45.478;9.116;2023-11-21T04:10:46;99110.25;;;9.69;100.00
55576;BME280;41437;45.478;9.116;2023-11-21T04:13:48;99106.91;;;9.56;100.00
55576;BME280;41437;45.478;9.116;2023-11-21T04:16:49;99103.63;;;9.54;100.00
55576;BME280;41437;45.478;9.116;2023-11-21T04:19:51;99106.03;;;9.36;100.00
55576;BME280;41437;45.478;9.116;2023-11-21T04:22:52;99090.69;;;9.50;100.00
55576;BME280;41437;45.478;9.116;2023-11-21T04:25:55;99098.13;;;9.49;100.00
55576;BME280;41437;45.478;9.116;2023-11-21T04:28:57;99086.56;;;9.57;100.00
55576;BME280;41437;45.478;9.116;2023-11-21T04:31:58;99087.66;;;9.62;100.00
55576;BME280;41437;45.478;9.116;2023-11-21T04:35:00;99091.50;;;9.50;100.00
55576;BME280;41437;45.478;9.116;2023-11-21T04:38:01;99087.13;;;9.49;100.00
55576;BME280;41437;45.478;9.116;2023-11-21T04:41:04;99087.06;;;9.39;100.00
55576;BME280;41437;45.478;9.116;2023-11-21T04:44:06;99082.97;;;9.52;100.00
55576;BME280;41437;45.478;9.116;2023-11-21T04:47:07;99097.31;;;9.54;100.00
55576;BME280;41437;45.478;9.116;2023-11-21T04:50:09;99097.25;;;9.44;100.00
55576;BME280;41437;45.478;9.116;2023-11-21T04:53:11;99100.28;;;9.42;100.00
55576;BME280;41437;45.478;9.116;2023-11-21T04:56:15;99103.84;;;9.32;100.00
55576;BME280;41437;45.478;9.116;2023-11-21T04:59:17;99105.72;;;9.17;100.00
55576;BME280;41437;45.478;9.116;2023-11-21T05:02:18;99113.16;;;9.26;100.00
55576;BME280;41437;45.478;9.116;2023-11-21T05:05:21;99106.84;;;9.26;100.00
55576;BME280;41437;45.478;9.116;2023-11-21T05:08:22;99110.69;;;9.25;100.00
55576;BME280;41437;45.478;9.116;2023-11-21T05:11:26;99109.38;;;9.43;100.00
55576;BME280;41437;45.478;9.116;2023-11-21T05:14:27;99102.28;;;9.62;100.00
55576;BME280;41437;45.478;9.116;2023-11-21T05:17:28;99101.41;;;9.46;100.00
55576;BME280;41437;45.478;9.116;2023-11-21T05:20:30;99095.59;;;9.27;100.00
55576;BME280;41437;45.478;9.116;2023-11-21T05:23:33;99095.78;;;9.05;100.00
55576;BME280;41437;45.478;9.116;2023-11-21T05:26:36;99093.63;;;9.18;100.00
55576;BME280;41437;45.478;9.116;2023-11-21T05:29:37;99094.50;;;9.28;100.00
55576;BME280;41437;45.478;9.116;2023-11-21T05:32:38;99095.09;;;9.46;100.00
55576;BME280;41437;45.478;9.116;2023-11-21T05:35:40;99103.03;;;9.42;100.00
55576;BME280;41437;45.478;9.116;2023-11-21T05:38:41;99103.03;;;9.37;100.00
55576;BME280;41437;45.478;9.116;2023-11-21T05:41:44;99104.16;;;9.41;100.00
55576;BME280;41437;45.478;9.116;2023-11-21T05:44:45;99104.69;;;9.43;100.00
55576;BME280;41437;45.478;9.116;2023-11-21T05:47:47;99109.09;;;9.44;100.00
55576;BME280;41437;45.478;9.116;2023-11-21T05:50:48;99107.44;;;9.48;100.00
55576;BME280;41437;45.478;9.116;2023-11-21T05:53:50;99107.19;;;9.65;100.00
55576;BME280;41437;45.478;9.116;2023-11-21T05:56:53;99112.75;;;9.86;100.00
55576;BME280;41437;45.478;9.116;2023-11-21T05:59:54;99104.16;;;9.62;100.00
55576;BME280;41437;45.478;9.116;2023-11-21T06:02:55;99108.00;;;9.45;100.00
55576;BME280;41437;45.478;9.116;2023-11-21T06:05:57;99111.81;;;9.34;100.00
55576;BME280;41437;45.478;9.116;2023-11-21T06:08:58;99113.75;;;9.34;100.00
55576;BME280;41437;45.478;9.116;2023-11-21T06:12:01;99109.66;;;9.46;100.00
55576;BME280;41437;45.478;9.116;2023-11-21T06:15:03;99111.34;;;9.68;100.00
55576;BME280;41437;45.478;9.116;2023-11-21T06:18:05;99106.41;;;10.00;100.00
55576;BME280;41437;45.478;9.116;2023-11-21T06:21:10;99100.38;;;9.93;100.00
55576;BME280;41437;45.478;9.116;2023-11-21T06:24:11;99103.94;;;9.89;100.00
55576;BME280;41437;45.478;9.116;2023-11-21T06:27:14;99102.28;;;9.88;100.00
55576;BME280;41437;45.478;9.116;2023-11-21T06:30:16;99102.00;;;9.74;100.00
55576;BME280;41437;45.478;9.116;2023-11-21T06:33:20;99105.28;;;9.61;100.00
55576;BME280;41437;45.478;9.116;2023-11-21T06:36:21;99092.34;;;9.51;100.00
55576;BME280;41437;45.478;9.116;2023-11-21T06:39:23;99101.63;;;9.24;100.00
55576;BME280;41437;45.478;9.116;2023-11-21T06:42:26;99093.06;;;9.16;100.00
55576;BME280;41437;45.478;9.116;2023-11-21T06:45:29;99100.50;;;9.15;100.00
55576;BME280;41437;45.478;9.116;2023-11-21T06:48:30;99097.97;;;9.03;100.00
55576;BME280;41437;45.478;9.116;2023-11-21T06:51:31;99090.81;;;8.97;100.00
55576;BME280;41437;45.478;9.116;2023-11-21T06:54:33;99088.03;;;8.92;100.00
55576;BME280;41437;45.478;9.116;2023-11-21T06:57:36;99091.66;;;9.03;100.00
55576;BME280;41437;45.478;9.116;2023-11-21T07:00:38;99088.94;;;9.13;100.00
55576;BME280;41437;45.478;9.116;2023-11-21T07:03:39;99089.75;;;9.14;100.00
55576;BME280;41437;45.478;9.116;2023-11-21T07:06:41;99086.44;;;9.06;100.00
55576;BME280;41437;45.478;9.116;2023-11-21T07:09:43;99088.91;;;9.03;100.00
55576;BME280;41437;45.478;9.116;2023-11-21T07:12:46;99085.56;;;8.91;100.00
55576;BME280;41437;45.478;9.116;2023-11-21T07:15:48;99094.06;;;8.89;100.00
55576;BME280;41437;45.478;9.116;2023-11-21T07:18:50;99096.66;;;9.16;100.00
55576;BME280;41437;45.478;9.116;2023-11-21T07:21:51;99092.09;;;9.88;100.00
55576;BME280;41437;45.478;9.116;2023-11-21T07:24:53;99092.34;;;10.22;100.00
55576;BME280;41437;45.478;9.116;2023-11-21T07:27:55;99085.50;;;9.84;100.00
55576;BME280;41437;45.478;9.116;2023-11-21T07:30:57;99088.19;;;9.48;100.00
55576;BME280;41437;45.478;9.116;2023-11-21T07:34:00;99101.84;;;9.18;100.00
55576;BME280;41437;45.478;9.116;2023-11-21T07:37:01;99098.50;;;9.00;100.00
55576;BME280;41437;45.478;9.116;2023-11-21T07:40:03;99098.59;;;9.21;100.00
55576;BME280;41437;45.478;9.116;2023-11-21T07:43:06;99097.06;;;9.71;100.00
55576;BME280;41437;45.478;9.116;2023-11-21T07:46:07;99095.94;;;9.67;100.00
55576;BME280;41437;45.478;9.116;2023-11-21T07:49:09;99102.94;;;9.12;100.00
55576;BME280;41437;45.478;9.116;2023-11-21T07:52:11;99106.16;;;8.88;100.00
55576;BME280;41437;45.478;9.116;2023-11-21T07:55:13;99109.66;;;8.73;100.00
55576;BME280;41437;45.478;9.116;2023-11-21T07:58:15;99104.94;;;8.69;100.00
55576;BME280;41437;45.478;9.116;2023-11-21T08:01:17;99103.84;;;8.65;100.00
55576;BME280;41437;45.478;9.116;2023-11-21T08:04:18;99099.47;;;8.69;100.00
55576;BME280;41437;45.478;9.116;2023-11-21T08:07:19;99103.34;;;8.78;100.00
55576;BME280;41437;45.478;9.116;2023-11-21T08:10:21;99100.06;;;8.81;100.00
55576;BME280;41437;45.478;9.116;2023-11-21T08:13:24;99094.22;;;9.35;100.00
55576;BME280;41437;45.478;9.116;2023-11-21T08:16:26;99088.94;;;9.18;100.00
55576;BME280;41437;45.478;9.116;2023-11-21T08:19:28;99089.53;;;9.36;100.00
55576;BME280;41437;45.478;9.116;2023-11-21T08:22:29;99084.91;;;9.36;100.00
55576;BME280;41437;45.478;9.116;2023-11-21T08:25:31;99084.09;;;9.51;100.00
55576;BME280;41437;45.478;9.116;2023-11-21T08:28:36;99085.50;;;10.25;100.00
55576;BME280;41437;45.478;9.116;2023-11-21T08:31:37;99080.53;;;10.17;100.00
55576;BME280;41437;45.478;9.116;2023-11-21T08:34:39;99081.66;;;9.90;100.00
55576;BME280;41437;45.478;9.116;2023-11-21T08:37:43;99071.44;;;9.70;100.00
55576;BME280;41437;45.478;9.116;2023-11-21T08:40:44;99062.94;;;9.77;100.00
55576;BME280;41437;45.478;9.116;2023-11-21T08:43:47;99058.22;;;10.18;100.00
55576;BME280;41437;45.478;9.116;2023-11-21T08:46:49;99059.03;;;10.39;100.00
55576;BME280;41437;45.478;9.116;2023-11-21T08:49:50;99049.44;;;9.96;100.00
55576;BME280;41437;45.478;9.116;2023-11-21T08:52:53;99043.09;;;10.05;100.00
55576;BME280;41437;45.478;9.116;2023-11-21T08:55:54;99035.38;;;10.18;100.00
55576;BME280;41437;45.478;9.116;2023-11-21T08:58:57;99037.03;;;10.39;100.00
55576;BME280;41437;45.478;9.116;2023-11-21T09:02:00;99035.66;;;10.42;100.00
55576;BME280;41437;45.478;9.116;2023-11-21T09:05:02;99041.38;;;10.55;100.00
55576;BME280;41437;45.478;9.116;2023-11-21T09:08:04;99029.50;;;10.65;100.00
55576;BME280;41437;45.478;9.116;2023-11-21T09:11:05;99038.50;;;10.91;100.00
55576;BME280;41437;45.478;9.116;2023-11-21T09:14:09;99042.88;;;10.97;100.00
55576;BME280;41437;45.478;9.116;2023-11-21T09:17:13;99028.53;;;10.95;100.00
55576;BME280;41437;45.478;9.116;2023-11-21T09:20:14;99038.06;;;10.64;100.00
55576;BME280;41437;45.478;9.116;2023-11-21T09:23:16;99033.06;;;10.66;100.00
55576;BME280;41437;45.478;9.116;2023-11-21T09:26:17;99036.53;;;11.02;100.00
55576;BME280;41437;45.478;9.116;2023-11-21T09:29:22;99035.06;;;11.15;100.00
55576;BME280;41437;45.478;9.116;2023-11-21T09:32:24;99040.78;;;11.28;100.00
55576;BME280;41437;45.478;9.116;2023-11-21T09:35:26;99038.84;;;11.29;100.00
55576;BME280;41437;45.478;9.116;2023-11-21T09:38:27;99034.19;;;11.24;100.00
55576;BME280;41437;45.478;9.116;2023-11-21T09:41:31;99025.41;;;11.17;100.00
55576;BME280;41437;45.478;9.116;2023-11-21T09:44:40;99024.13;;;11.78;100.00
55576;BME280;41437;45.478;9.116;2023-11-21T09:47:45;99009.97;;;12.19;100.00
55576;BME280;41437;45.478;9.116;2023-11-21T09:50:47;99005.69;;;12.07;100.00
55576;BME280;41437;45.478;9.116;2023-11-21T09:53:50;99001.91;;;11.25;100.00
55576;BME280;41437;45.478;9.116;2023-11-21T09:56:52;99010.81;;;11.12;100.00
55576;BME280;41437;45.478;9.116;2023-11-21T09:59:55;99006.75;;;11.43;100.00
55576;BME280;41437;45.478;9.116;2023-11-21T10:02:59;99012.81;;;11.40;100.00
55576;BME280;41437;45.478;9.116;2023-11-21T10:06:00;99011.28;;;10.74;100.00
55576;BME280;41437;45.478;9.116;2023-11-21T10:09:02;99013.88;;;10.45;100.00
55576;BME280;41437;45.478;9.116;2023-11-21T10:12:04;98994.34;;;10.42;100.00
55576;BME280;41437;45.478;9.116;2023-11-21T10:15:09;98989.03;;;11.15;100.00
55576;BME280;41437;45.478;9.116;2023-11-21T10:18:16;99002.31;;;11.03;100.00
55576;BME280;41437;45.478;9.116;2023-11-21T10:21:18;98977.75;;;11.12;100.00
55576;BME280;41437;45.478;9.116;2023-11-21T10:24:20;98968.03;;;11.58;100.00
55576;BME280;41437;45.478;9.116;2023-11-21T10:27:22;98974.97;;;11.51;100.00
55576;BME280;41437;45.478;9.116;2023-11-21T10:30:26;98978.63;;;11.41;100.00
55576;BME280;41437;45.478;9.116;2023-11-21T10:33:29;98973.78;;;11.28;100.00
55576;BME280;41437;45.478;9.116;2023-11-21T10:36:30;98975.75;;;11.56;100.00
55576;BME280;41437;45.478;9.116;2023-11-21T10:39:33;98970.00;;;11.82;100.00
55576;BME280;41437;45.478;9.116;2023-11-21T10:42:34;98965.47;;;11.62;100.00
55576;BME280;41437;45.478;9.116;2023-11-21T10:45:37;98953.78;;;11.07;100.00
55576;BME280;41437;45.478;9.116;2023-11-21T10:48:39;98959.53;;;11.79;100.00
55576;BME280;41437;45.478;9.116;2023-11-21T10:51:43;98957.38;;;12.05;100.00
55576;BME280;41437;45.478;9.116;2023-11-21T10:54:45;98970.69;;;12.27;100.00
55576;BME280;41437;45.478;9.116;2023-11-21T10:57:48;98969.94;;;12.45;100.00
55576;BME280;41437;45.478;9.116;2023-11-21T11:00:52;98971.25;;;12.72;100.00
55576;BME280;41437;45.478;9.116;2023-11-21T11:03:53;98971.91;;;12.64;100.00
55576;BME280;41437;45.478;9.116;2023-11-21T11:06:57;98966.97;;;12.61;100.00
55576;BME280;41437;45.478;9.116;2023-11-21T11:09:59;98968.03;;;12.65;100.00
55576;BME280;41437;45.478;9.116;2023-11-21T11:13:01;98961.19;;;12.81;100.00
55576;BME280;41437;45.478;9.116;2023-11-21T11:16:06;98956.63;;;12.90;100.00
55576;BME280;41437;45.478;9.116;2023-11-21T11:19:11;98947.94;;;12.78;100.00
55576;BME280;41437;45.478;9.116;2023-11-21T11:22:28;98941.13;;;12.70;100.00
55576;BME280;41437;45.478;9.116;2023-11-21T11:25:46;98945.25;;;12.30;100.00
55576;BME280;41437;45.478;9.116;2023-11-21T11:28:59;98936.81;;;11.92;100.00
55576;BME280;41437;45.478;9.116;2023-11-21T11:32:15;98942.25;;;12.26;100.00
55576;BME280;41437;45.478;9.116;2023-11-21T11:35:26;98950.84;;;12.68;100.00
55576;BME280;41437;45.478;9.116;2023-11-21T11:38:33;98941.72;;;13.29;100.00
55576;BME280;41437;45.478;9.116;2023-11-21T11:41:35;98937.22;;;13.33;100.00
55576;BME280;41437;45.478;9.116;2023-11-21T11:44:49;98930.56;;;13.34;100.00
55576;BME280;41437;45.478;9.116;2023-11-21T11:47:56;98932.56;;;13.47;100.00
55576;BME280;41437;45.478;9.116;2023-11-21T11:51:02;98942.94;;;13.55;100.00
55576;BME280;41437;45.478;9.116;2023-11-21T11:54:05;98936.19;;;13.62;100.00
55576;BME280;41437;45.478;9.116;2023-11-21T11:57:08;98943.19;;;13.73;100.00
55576;BME280;41437;45.478;9.116;2023-11-21T12:00:11;98932.72;;;13.37;100.00
55576;BME280;41437;45.478;9.116;2023-11-21T12:03:17;98936.31;;;13.38;100.00
55576;BME280;41437;45.478;9.116;2023-11-21T12:06:32;98933.38;;;13.48;100.00
55576;BME280;41437;45.478;9.116;2023-11-21T12:09:37;98927.78;;;13.34;100.00
55576;BME280;41437;45.478;9.116;2023-11-21T12:12:41;98921.94;;;13.17;100.00
55576;BME280;41437;45.478;9.116;2023-11-21T12:15:42;98914.16;;;13.19;100.00
55576;BME280;41437;45.478;9.116;2023-11-21T12:18:46;98912.09;;;13.11;100.00
55576;BME280;41437;45.478;9.116;2023-11-21T12:21:48;98911.47;;;13.14;100.00
55576;BME280;41437;45.478;9.116;2023-11-21T12:24:50;98906.13;;;13.03;100.00
55576;BME280;41437;45.478;9.116;2023-11-21T12:27:52;98902.69;;;13.12;100.00
55576;BME280;41437;45.478;9.116;2023-11-21T12:30:54;98903.94;;;13.00;100.00
55576;BME280;41437;45.478;9.116;2023-11-21T12:33:58;98898.25;;;12.92;100.00
55576;BME280;41437;45.478;9.116;2023-11-21T12:37:00;98904.09;;;12.90;100.00
55576;BME280;41437;45.478;9.116;2023-11-21T12:40:01;98901.56;;;12.94;100.00
55576;BME280;41437;45.478;9.116;2023-11-21T12:43:02;98901.78;;;12.97;100.00
55576;BME280;41437;45.478;9.116;2023-11-21T12:46:05;98912.91;;;13.11;100.00
55576;BME280;41437;45.478;9.116;2023-11-21T12:49:08;98911.63;;;12.66;100.00
55576;BME280;41437;45.478;9.116;2023-11-21T12:52:17;98909.59;;;12.52;100.00
55576;BME280;41437;45.478;9.116;2023-11-21T12:55:19;98897.97;;;12.31;100.00
55576;BME280;41437;45.478;9.116;2023-11-21T12:58:21;98902.06;;;12.15;100.00
55576;BME280;41437;45.478;9.116;2023-11-21T13:01:25;98908.91;;;12.42;100.00
55576;BME280;41437;45.478;9.116;2023-11-21T13:04:30;98899.91;;;12.31;100.00
55576;BME280;41437;45.478;9.116;2023-11-21T13:07:40;98903.75;;;12.35;100.00
55576;BME280;41437;45.478;9.116;2023-11-21T13:10:48;98900.97;;;12.35;100.00
55576;BME280;41437;45.478;9.116;2023-11-21T13:13:51;98913.16;;;12.77;100.00
55576;BME280;41437;45.478;9.116;2023-11-21T13:16:53;98910.22;;;12.68;100.00
55576;BME280;41437;45.478;9.116;2023-11-21T13:19:56;98910.59;;;12.99;100.00
55576;BME280;41437;45.478;9.116;2023-11-21T13:22:58;98914.09;;;13.05;100.00
55576;BME280;41437;45.478;9.116;2023-11-21T13:26:01;98922.13;;;13.06;100.00
55576;BME280;41437;45.478;9.116;2023-11-21T13:29:04;98918.22;;;13.07;100.00
55576;BME280;41437;45.478;9.116;2023-11-21T13:32:05;98933.19;;;13.06;100.00
55576;BME280;41437;45.478;9.116;2023-11-21T13:35:10;98928.59;;;12.97;100.00
55576;BME280;41437;45.478;9.116;2023-11-21T13:38:20;98929.25;;;12.70;100.00
55576;BME280;41437;45.478;9.116;2023-11-21T13:41:22;98932.72;;;12.80;100.00
55576;BME280;41437;45.478;9.116;2023-11-21T13:44:30;98935.47;;;13.18;100.00
55576;BME280;41437;45.478;9.116;2023-11-21T13:47:37;98938.63;;;13.30;100.00
55576;BME280;41437;45.478;9.116;2023-11-21T13:50:41;98934.88;;;12.83;100.00
55576;BME280;41437;45.478;9.116;2023-11-21T13:53:48;98941.75;;;13.05;100.00
55576;BME280;41437;45.478;9.116;2023-11-21T13:56:52;98937.06;;;12.87;100.00
55576;BME280;41437;45.478;9.116;2023-11-21T13:59:55;98936.47;;;12.90;100.00
55576;BME280;41437;45.478;9.116;2023-11-21T14:02:58;98941.06;;;12.75;100.00
55576;BME280;41437;45.478;9.116;2023-11-21T14:06:02;98937.38;;;12.61;100.00
55576;BME280;41437;45.478;9.116;2023-11-21T14:09:13;98943.31;;;12.73;100.00
55576;BME280;41437;45.478;9.116;2023-11-21T14:12:22;98938.69;;;12.69;100.00
55576;BME280;41437;45.478;9.116;2023-11-21T14:15:23;98943.56;;;12.77;100.00
55576;BME280;41437;45.478;9.116;2023-11-21T14:18:25;98944.38;;;12.77;100.00
55576;BME280;41437;45.478;9.116;2023-11-21T14:21:32;98948.41;;;12.85;100.00
55576;BME280;41437;45.478;9.116;2023-11-21T14:24:33;98947.28;;;12.67;100.00
55576;BME280;41437;45.478;9.116;2023-11-21T14:27:34;98951.34;;;12.94;100.00
55576;BME280;41437;45.478;9.116;2023-11-21T14:30:36;98947.81;;;12.88;100.00
55576;BME280;41437;45.478;9.116;2023-11-21T14:33:37;98961.25;;;12.76;100.00
55576;BME280;41437;45.478;9.116;2023-11-21T14:36:40;98963.66;;;12.82;100.00
55576;BME280;41437;45.478;9.116;2023-11-21T14:39:43;98970.53;;;12.85;100.00
55576;BME280;41437;45.478;9.116;2023-11-21T14:42:48;98973.47;;;12.70;100.00
55576;BME280;41437;45.478;9.116;2023-11-21T14:45:49;98977.72;;;12.62;100.00
55576;BME280;41437;45.478;9.116;2023-11-21T14:48:51;98976.91;;;12.62;100.00
55576;BME280;41437;45.478;9.116;2023-11-21T14:52:11;98986.38;;;12.55;100.00
55576;BME280;41437;45.478;9.116;2023-11-21T14:55:27;98981.91;;;12.60;100.00
55576;BME280;41437;45.478;9.116;2023-11-21T14:58:32;98985.84;;;12.53;100.00
55576;BME280;41437;45.478;9.116;2023-11-21T15:01:32;98983.38;;;12.52;100.00
55576;BME280;41437;45.478;9.116;2023-11-21T15:04:48;98988.78;;;12.38;100.00
55576;BME280;41437;45.478;9.116;2023-11-21T15:07:54;98988.84;;;12.33;100.00
55576;BME280;41437;45.478;9.116;2023-11-21T15:10:57;98991.69;;;12.28;100.00
55576;BME280;41437;45.478;9.116;2023-11-21T15:13:59;98986.50;;;12.21;100.00
55576;BME280;41437;45.478;9.116;2023-11-21T15:17:05;98997.09;;;12.09;100.00
55576;BME280;41437;45.478;9.116;2023-11-21T15:20:08;99004.69;;;11.98;100.00
55576;BME280;41437;45.478;9.116;2023-11-21T15:23:11;98991.81;;;11.89;100.00
55576;BME280;41437;45.478;9.116;2023-11-21T15:26:14;99006.13;;;11.91;100.00
55576;BME280;41437;45.478;9.116;2023-11-21T15:29:15;99008.66;;;11.82;100.00
55576;BME280;41437;45.478;9.116;2023-11-21T15:32:18;99016.47;;;11.70;100.00
55576;BME280;41437;45.478;9.116;2023-11-21T15:35:20;99018.81;;;11.52;100.00
55576;BME280;41437;45.478;9.116;2023-11-21T15:38:23;99012.19;;;11.53;100.00
55576;BME280;41437;45.478;9.116;2023-11-21T15:41:25;99011.28;;;11.29;100.00
55576;BME280;41437;45.478;9.116;2023-11-21T15:44:27;99030.09;;;11.17;100.00
55576;BME280;41437;45.478;9.116;2023-11-21T15:47:30;99026.56;;;11.06;100.00
55576;BME280;41437;45.478;9.116;2023-11-21T15:50:32;99016.78;;;10.74;100.00
55576;BME280;41437;45.478;9.116;2023-11-21T15:53:35;99020.44;;;10.60;100.00
55576;BME280;41437;45.478;9.116;2023-11-21T15:56:38;99024.25;;;10.69;100.00
55576;BME280;41437;45.478;9.116;2023-11-21T15:59:41;99030.06;;;10.67;100.00
55576;BME280;41437;45.478;9.116;2023-11-21T16:02:43;99031.03;;;10.92;100.00